createdAt,value
2023-02-26T00:00:09.972Z,93415.31
2023-02-26T00:02:36.722Z,93411.84
2023-02-26T00:05:04.971Z,93422.81
2023-02-26T00:07:31.543Z,93425.97
2023-02-26T00:09:58.690Z,93424.38
2023-02-26T00:12:25.894Z,93431.66
2023-02-26T00:14:52.974Z,93433.50
2023-02-26T00:17:31.509Z,93441.59
2023-02-26T00:19:58.540Z,93445.00
2023-02-26T00:22:25.376Z,93451.34
2023-02-26T00:24:52.333Z,93453.44
2023-02-26T00:27:18.850Z,93453.59
2023-02-26T00:29:46.020Z,93458.06
2023-02-26T00:32:13.106Z,93455.13
2023-02-26T00:34:40.555Z,93463.09
2023-02-26T00:37:31.652Z,93466.75
2023-02-26T00:40:16.946Z,93468.91
2023-02-26T00:42:43.673Z,93474.25
2023-02-26T00:45:12.065Z,93474.75
2023-02-26T00:48:01.365Z,93474.00
2023-02-26T00:50:28.270Z,93483.66
2023-02-26T00:53:17.131Z,93485.50
2023-02-26T00:55:43.804Z,93478.59
2023-02-26T00:58:10.320Z,93490.44
2023-02-26T01:00:36.804Z,93486.22
2023-02-26T01:03:03.799Z,93480.78
2023-02-26T01:05:30.806Z,93495.72
2023-02-26T01:08:13.230Z,93497.13
2023-02-26T01:10:40.612Z,93502.06
2023-02-26T01:13:07.420Z,93505.72
2023-02-26T01:15:34.307Z,93505.06
2023-02-26T01:18:03.990Z,93506.06
2023-02-26T01:20:37.504Z,93509.88
2023-02-26T01:23:07.416Z,93517.69
2023-02-26T01:25:44.795Z,93519.59
2023-02-26T01:28:11.466Z,93533.59
2023-02-26T01:30:38.406Z,93541.41
2023-02-26T01:33:17.867Z,93536.28
2023-02-26T01:35:53.511Z,93549.31
2023-02-26T01:38:44.393Z,93554.59
2023-02-26T01:41:30.259Z,93552.44
2023-02-26T01:44:03.695Z,93556.56
2023-02-26T01:46:44.121Z,93571.31
2023-02-26T01:49:16.172Z,93577.06
2023-02-26T01:51:47.359Z,93578.81
2023-02-26T01:54:15.425Z,93576.00
2023-02-26T01:56:42.340Z,93582.16
2023-02-26T01:59:10.262Z,93584.44
2023-02-26T02:01:37.616Z,93586.03
2023-02-26T02:04:04.923Z,93592.13
2023-02-26T02:06:31.662Z,93597.25
2023-02-26T02:08:58.158Z,93612.31
2023-02-26T02:11:24.657Z,93626.97
2023-02-26T02:14:21.999Z,93637.66
2023-02-26T02:17:12.070Z,93630.13
2023-02-26T02:19:50.274Z,93637.91
2023-02-26T02:22:19.854Z,93642.50
2023-02-26T02:24:58.417Z,93645.84
2023-02-26T02:27:43.194Z,93656.50
2023-02-26T02:30:36.935Z,93658.56
2023-02-26T02:33:20.143Z,93670.03
2023-02-26T02:36:12.717Z,93667.81
2023-02-26T02:38:52.980Z,93676.25
2023-02-26T02:41:24.618Z,93674.16
2023-02-26T02:43:51.964Z,93680.19
2023-02-26T02:46:22.248Z,93675.50
2023-02-26T02:49:01.930Z,93669.31
2023-02-26T02:51:36.621Z,93678.66
2023-02-26T02:54:26.282Z,93675.94
2023-02-26T02:56:56.948Z,93684.31
2023-02-26T02:59:40.156Z,93679.53
2023-02-26T03:02:23.873Z,93685.09
2023-02-26T03:04:50.450Z,93691.22
2023-02-26T03:07:16.929Z,93689.94
2023-02-26T03:09:43.459Z,93696.25
2023-02-26T03:12:10.399Z,93702.22
2023-02-26T03:14:37.113Z,93707.03
2023-02-26T03:17:32.334Z,93711.59
2023-02-26T03:20:28.002Z,93727.22
2023-02-26T03:23:18.971Z,93732.50
2023-02-26T03:25:51.286Z,93738.44
2023-02-26T03:28:27.185Z,93739.13
2023-02-26T03:31:11.523Z,93745.94
2023-02-26T03:33:59.230Z,93757.16
2023-02-26T03:36:38.067Z,93756.41
2023-02-26T03:39:30.864Z,93765.19
2023-02-26T03:42:03.401Z,93762.78
2023-02-26T03:44:39.597Z,93769.78
2023-02-26T03:47:12.873Z,93759.69
2023-02-26T03:49:44.530Z,93762.63
2023-02-26T03:52:11.739Z,93767.38
2023-02-26T03:54:55.298Z,93776.28
2023-02-26T03:57:22.055Z,93777.75
2023-02-26T03:59:48.683Z,93779.97
2023-02-26T04:02:19.148Z,93777.03
2023-02-26T04:04:53.544Z,93784.47
2023-02-26T04:07:20.703Z,93784.81
2023-02-26T04:09:49.593Z,93786.00
2023-02-26T04:12:21.189Z,93795.72
2023-02-26T04:14:47.636Z,93801.09
2023-02-26T04:17:14.102Z,93804.56
2023-02-26T04:19:40.708Z,93806.97
2023-02-26T04:22:07.211Z,93810.56
2023-02-26T04:24:33.939Z,93815.75
2023-02-26T04:27:00.480Z,93814.22
2023-02-26T04:29:27.565Z,93816.53
2023-02-26T04:31:54.336Z,93821.28
2023-02-26T04:34:21.076Z,93826.69
2023-02-26T04:36:47.598Z,93821.16
2023-02-26T04:39:14.139Z,93831.75
2023-02-26T04:41:40.783Z,93828.41
2023-02-26T04:44:07.261Z,93832.78
2023-02-26T04:46:33.844Z,93832.63
2023-02-26T04:49:00.502Z,93833.47
2023-02-26T04:51:27.165Z,93838.47
2023-02-26T04:53:53.724Z,93843.63
2023-02-26T04:56:20.559Z,93844.22
2023-02-26T04:58:47.016Z,93847.41
2023-02-26T05:01:13.724Z,93855.66
2023-02-26T05:03:40.464Z,93857.81
2023-02-26T05:06:07.200Z,93854.75
2023-02-26T05:08:33.647Z,93857.25
2023-02-26T05:11:00.160Z,93863.22
2023-02-26T05:13:26.888Z,93868.97
2023-02-26T05:15:54.626Z,93871.72
2023-02-26T05:18:21.369Z,93881.84
2023-02-26T05:20:53.024Z,93893.66
2023-02-26T05:23:19.561Z,93896.09
2023-02-26T05:25:46.125Z,93891.44
2023-02-26T05:28:12.677Z,93900.09
2023-02-26T05:30:39.203Z,93910.16
2023-02-26T05:33:05.890Z,93910.84
2023-02-26T05:35:32.423Z,93918.25
2023-02-26T05:37:59.846Z,93921.78
2023-02-26T05:40:26.534Z,93921.88
2023-02-26T05:42:53.098Z,93925.47
2023-02-26T05:45:19.588Z,93933.72
2023-02-26T05:47:46.193Z,93948.72
2023-02-26T05:50:12.896Z,93945.94
2023-02-26T05:52:39.508Z,93964.66
2023-02-26T05:55:06.928Z,93969.09
2023-02-26T05:57:33.390Z,93969.34
2023-02-26T05:59:59.866Z,93978.72
2023-02-26T06:02:26.601Z,93986.72
2023-02-26T06:04:53.165Z,93992.50
2023-02-26T06:07:19.674Z,93998.66
2023-02-26T06:09:46.446Z,94002.59
2023-02-26T06:12:12.974Z,93996.03
2023-02-26T06:14:39.424Z,94002.72
2023-02-26T06:17:06.921Z,94025.44
2023-02-26T06:19:33.962Z,94011.63
2023-02-26T06:22:00.505Z,94016.63
2023-02-26T06:24:27.156Z,94021.53
2023-02-26T06:26:53.590Z,94024.38
2023-02-26T06:29:20.735Z,94034.25
2023-02-26T06:31:47.808Z,94033.78
2023-02-26T06:34:14.552Z,94039.22
2023-02-26T06:36:41.132Z,94042.28
2023-02-26T06:39:08.185Z,94052.94
2023-02-26T06:41:34.678Z,94049.44
2023-02-26T06:44:01.229Z,94058.81
2023-02-26T06:46:28.133Z,94072.22
2023-02-26T06:48:54.751Z,94065.59
2023-02-26T06:51:21.277Z,94077.81
2023-02-26T06:53:47.933Z,94080.06
2023-02-26T06:56:15.033Z,94082.50
2023-02-26T06:58:41.645Z,94086.44
2023-02-26T07:01:08.330Z,94100.53
2023-02-26T07:03:34.886Z,94101.19
2023-02-26T07:06:23.690Z,94091.22
2023-02-26T07:08:48.432Z,94101.28
2023-02-26T07:11:15.088Z,94102.16
2023-02-26T07:13:41.695Z,94105.69
2023-02-26T07:16:08.463Z,94117.13
2023-02-26T07:18:36.441Z,94122.44
2023-02-26T07:21:04.273Z,94127.91
2023-02-26T07:23:31.498Z,94130.53
2023-02-26T07:25:58.221Z,94128.47
2023-02-26T07:28:25.037Z,94132.66
2023-02-26T07:30:54.727Z,94138.13
2023-02-26T07:33:21.694Z,94142.19
2023-02-26T07:35:48.374Z,94147.59
2023-02-26T07:38:15.390Z,94147.34
2023-02-26T07:40:41.916Z,94155.72
2023-02-26T07:43:08.380Z,94160.53
2023-02-26T07:45:35.055Z,94168.44
2023-02-26T07:48:01.767Z,94173.22
2023-02-26T07:50:28.304Z,94175.84
2023-02-26T07:52:55.427Z,94179.75
2023-02-26T07:55:22.262Z,94179.88
2023-02-26T07:57:48.718Z,94182.06
2023-02-26T08:00:16.052Z,94189.09
2023-02-26T08:02:42.558Z,94199.06
2023-02-26T08:05:09.191Z,94195.84
2023-02-26T08:07:35.991Z,94201.09
2023-02-26T08:10:02.539Z,94201.34
2023-02-26T08:12:29.296Z,94209.53
2023-02-26T08:14:56.311Z,94212.34
2023-02-26T08:17:22.782Z,94215.25
2023-02-26T08:19:49.417Z,94216.78
2023-02-26T08:22:16.137Z,94229.09
2023-02-26T08:24:42.787Z,94234.84
2023-02-26T08:27:09.265Z,94244.06
2023-02-26T08:29:36.214Z,94240.69
2023-02-26T08:32:02.808Z,94238.31
2023-02-26T08:34:30.018Z,94239.91
2023-02-26T08:36:57.439Z,94248.91
2023-02-26T08:39:23.990Z,94242.50
2023-02-26T08:41:50.503Z,94249.00
2023-02-26T08:44:17.263Z,94256.28
2023-02-26T08:46:43.754Z,94262.06
2023-02-26T08:49:10.340Z,94267.91
2023-02-26T08:51:37.221Z,94272.75
2023-02-26T08:54:03.687Z,94278.66
2023-02-26T08:56:32.013Z,94281.06
2023-02-26T08:58:58.782Z,94291.09
2023-02-26T09:01:25.771Z,94298.75
2023-02-26T09:03:52.418Z,94306.19
2023-02-26T09:06:19.038Z,94301.13
2023-02-26T09:08:45.672Z,94315.69
2023-02-26T09:11:12.199Z,94305.56
2023-02-26T09:13:39.126Z,94317.28
2023-02-26T09:16:06.260Z,94321.25
2023-02-26T09:18:32.817Z,94323.50
2023-02-26T09:20:59.484Z,94332.38
2023-02-26T09:23:26.186Z,94342.88
2023-02-26T09:25:57.279Z,94340.56
2023-02-26T09:28:25.480Z,94338.16
2023-02-26T09:30:53.455Z,94349.19
2023-02-26T09:33:20.425Z,94337.69
2023-02-26T09:35:51.338Z,94346.66
2023-02-26T09:38:18.461Z,94355.78
2023-02-26T09:40:50.301Z,94351.44
2023-02-26T09:43:54.308Z,94357.28
2023-02-26T09:46:38.682Z,94362.75
2023-02-26T09:49:15.492Z,94368.91
2023-02-26T09:51:42.270Z,94374.84
2023-02-26T09:54:22.798Z,94378.94
2023-02-26T09:56:50.343Z,94383.66
2023-02-26T09:59:16.999Z,94387.88
2023-02-26T10:01:54.836Z,94385.03
2023-02-26T10:04:44.839Z,94392.81
2023-02-26T10:07:22.185Z,94393.63
2023-02-26T10:10:11.843Z,94396.03
2023-02-26T10:12:41.092Z,94393.56
2023-02-26T10:15:18.970Z,94402.66
2023-02-26T10:18:13.774Z,94403.81
2023-02-26T10:20:58.782Z,94402.72
2023-02-26T10:23:32.564Z,94402.41
2023-02-26T10:26:08.410Z,94410.47
2023-02-26T10:28:38.884Z,94409.13
2023-02-26T10:31:19.246Z,94412.53
2023-02-26T10:33:53.663Z,94423.28
2023-02-26T10:36:55.607Z,94424.25
2023-02-26T10:39:37.689Z,94435.09
2023-02-26T10:42:12.384Z,94430.91
2023-02-26T10:44:52.941Z,94437.81
2023-02-26T10:47:54.398Z,94438.38
2023-02-26T10:50:22.781Z,94447.47
2023-02-26T10:52:50.015Z,94451.06
2023-02-26T10:55:31.382Z,94457.72
2023-02-26T10:58:05.478Z,94460.06
2023-02-26T11:00:35.366Z,94466.28
2023-02-26T11:03:03.872Z,94470.34
2023-02-26T11:05:32.482Z,94474.16
2023-02-26T11:08:04.003Z,94470.56
2023-02-26T11:10:49.346Z,94482.44
2023-02-26T11:13:16.078Z,94479.75
2023-02-26T11:15:43.877Z,94486.19
2023-02-26T11:18:17.107Z,94492.88
2023-02-26T11:20:45.965Z,94490.97
2023-02-26T11:23:16.550Z,94497.03
2023-02-26T11:25:45.440Z,94501.69
2023-02-26T11:28:22.322Z,94499.78
2023-02-26T11:30:49.462Z,94496.44
2023-02-26T11:33:38.645Z,94503.13
2023-02-26T11:36:10.424Z,94503.84
2023-02-26T11:38:37.285Z,94506.72
2023-02-26T11:41:05.351Z,94505.78
2023-02-26T11:43:38.305Z,94518.81
2023-02-26T11:46:06.010Z,94516.88
2023-02-26T11:48:53.444Z,94528.31
2023-02-26T11:51:23.032Z,94520.97
2023-02-26T11:53:55.578Z,94524.06
2023-02-26T11:56:40.447Z,94527.75
2023-02-26T11:59:15.855Z,94534.53
2023-02-26T12:01:43.104Z,94536.41
2023-02-26T12:04:11.942Z,94533.97
2023-02-26T12:06:38.905Z,94549.97
2023-02-26T12:09:12.473Z,94546.28
2023-02-26T12:11:44.027Z,94556.75
2023-02-26T12:14:41.053Z,94558.31
2023-02-26T12:17:32.287Z,94558.34
2023-02-26T12:20:04.594Z,94561.88
2023-02-26T12:22:47.115Z,94564.84
2023-02-26T12:25:22.469Z,94567.06
2023-02-26T12:28:10.124Z,94567.50
2023-02-26T12:30:48.782Z,94573.34
2023-02-26T12:33:40.172Z,94581.31
2023-02-26T12:36:48.781Z,94581.88
2023-02-26T12:39:49.987Z,94577.38
2023-02-26T12:42:44.508Z,94574.50
2023-02-26T12:45:29.142Z,94580.25
2023-02-26T12:48:09.015Z,94576.72
2023-02-26T12:50:41.745Z,94586.41
2023-02-26T12:53:11.305Z,94590.31
2023-02-26T12:56:11.668Z,94594.00
2023-02-26T12:58:50.876Z,94585.84
2023-02-26T13:02:01.010Z,94586.38
2023-02-26T13:04:47.304Z,94601.34
2023-02-26T13:07:20.393Z,94604.97
2023-02-26T13:09:50.801Z,94608.31
2023-02-26T13:12:31.886Z,94601.94
2023-02-26T13:15:20.248Z,94609.25
2023-02-26T13:17:59.247Z,94607.06
2023-02-26T13:20:29.129Z,94609.75
2023-02-26T13:23:01.573Z,94613.41
2023-02-26T13:25:52.443Z,94615.69
2023-02-26T13:28:25.867Z,94617.38
2023-02-26T13:30:54.769Z,94623.81
2023-02-26T13:33:26.229Z,94621.47
2023-02-26T13:35:53.781Z,94614.59
2023-02-26T13:38:26.706Z,94620.31
2023-02-26T13:41:17.066Z,94629.81
2023-02-26T13:44:02.544Z,94636.66
2023-02-26T13:46:57.097Z,94631.53
2023-02-26T13:49:31.433Z,94630.34
2023-02-26T13:51:58.917Z,94640.50
2023-02-26T13:54:35.102Z,94636.31
2023-02-26T13:57:20.768Z,94627.44
2023-02-26T14:00:15.372Z,94629.63
2023-02-26T14:02:52.468Z,94642.53
2023-02-26T14:05:45.348Z,94645.16
2023-02-26T14:08:18.378Z,94645.47
2023-02-26T14:10:47.839Z,94645.50
2023-02-26T14:13:18.652Z,94642.03
2023-02-26T14:16:13.950Z,94644.53
2023-02-26T14:18:40.377Z,94648.06
2023-02-26T14:21:28.423Z,94656.91
2023-02-26T14:24:01.048Z,94657.88
2023-02-26T14:26:29.875Z,94662.53
2023-02-26T14:28:58.220Z,94667.00
2023-02-26T14:31:29.110Z,94659.34
2023-02-26T14:34:10.100Z,94661.53
2023-02-26T14:36:42.837Z,94666.38
2023-02-26T14:39:18.101Z,94676.16
2023-02-26T14:41:45.306Z,94679.66
2023-02-26T14:44:16.052Z,94679.19
2023-02-26T14:46:43.850Z,94679.09
2023-02-26T14:49:25.254Z,94684.28
2023-02-26T14:52:09.856Z,94681.84
2023-02-26T14:55:27.604Z,94686.22
2023-02-26T14:58:14.512Z,94686.16
2023-02-26T15:00:54.218Z,94683.88
2023-02-26T15:03:42.387Z,94682.44
2023-02-26T15:06:50.869Z,94682.72
2023-02-26T15:09:21.990Z,94686.78
2023-02-26T15:12:10.216Z,94688.19
2023-02-26T15:14:50.407Z,94687.22
2023-02-26T15:17:31.925Z,94695.78
2023-02-26T15:20:27.495Z,94696.63
2023-02-26T15:23:32.032Z,94699.78
2023-02-26T15:25:58.931Z,94701.59
2023-02-26T15:28:29.000Z,94706.50
2023-02-26T15:30:56.204Z,94707.34
2023-02-26T15:33:24.454Z,94711.47
2023-02-26T15:35:52.250Z,94720.31
2023-02-26T15:38:19.369Z,94725.84
2023-02-26T15:40:46.329Z,94730.00
2023-02-26T15:43:16.515Z,94733.28
2023-02-26T15:45:46.265Z,94737.72
2023-02-26T15:48:16.928Z,94740.06
2023-02-26T15:50:45.566Z,94739.28
2023-02-26T15:53:21.907Z,94741.03
2023-02-26T15:55:53.713Z,94749.56
2023-02-26T15:58:38.599Z,94745.81
2023-02-26T16:01:05.569Z,94747.78
2023-02-26T16:03:35.467Z,94754.19
2023-02-26T16:06:02.561Z,94764.09
2023-02-26T16:08:30.208Z,94768.41
2023-02-26T16:10:58.813Z,94772.66
2023-02-26T16:13:31.710Z,94777.97
2023-02-26T16:16:21.136Z,94773.53
2023-02-26T16:18:48.212Z,94778.03
2023-02-26T16:21:34.404Z,94784.94
2023-02-26T16:24:02.237Z,94786.50
2023-02-26T16:26:35.530Z,94783.53
2023-02-26T16:29:06.308Z,94781.41
2023-02-26T16:31:37.933Z,94784.94
2023-02-26T16:34:24.468Z,94784.75
2023-02-26T16:36:54.063Z,94797.63
2023-02-26T16:39:26.109Z,94796.78
2023-02-26T16:42:09.570Z,94804.25
2023-02-26T16:44:46.114Z,94800.88
2023-02-26T16:47:13.397Z,94805.88
2023-02-26T16:49:41.481Z,94808.47
2023-02-26T16:52:13.025Z,94809.34
2023-02-26T16:54:41.763Z,94823.25
2023-02-26T16:57:18.750Z,94818.44
2023-02-26T16:59:52.407Z,94823.41
2023-02-26T17:02:24.721Z,94821.81
2023-02-26T17:04:57.910Z,94827.66
2023-02-26T17:07:28.211Z,94829.31
2023-02-26T17:10:00.622Z,94830.94
2023-02-26T17:12:42.540Z,94841.84
2023-02-26T17:15:18.219Z,94848.56
2023-02-26T17:17:44.992Z,94846.09
2023-02-26T17:20:12.128Z,94852.69
2023-02-26T17:22:39.006Z,94848.56
2023-02-26T17:25:06.236Z,94852.69
2023-02-26T17:27:34.937Z,94856.91
2023-02-26T17:30:06.403Z,94863.66
2023-02-26T17:32:33.427Z,94866.28
2023-02-26T17:35:00.223Z,94864.72
2023-02-26T17:37:33.448Z,94875.25
2023-02-26T17:40:00.416Z,94876.13
2023-02-26T17:42:27.012Z,94884.47
2023-02-26T17:44:57.559Z,94884.34
2023-02-26T17:47:26.528Z,94887.81
2023-02-26T17:49:54.147Z,94884.38
2023-02-26T17:52:21.030Z,94891.06
2023-02-26T17:54:48.719Z,94890.22
2023-02-26T17:57:20.032Z,94889.25
2023-02-26T17:59:46.920Z,94893.66
2023-02-26T18:02:18.740Z,94901.91
2023-02-26T18:04:46.286Z,94906.88
2023-02-26T18:07:16.551Z,94907.72
2023-02-26T18:09:44.462Z,94907.75
2023-02-26T18:12:14.121Z,94911.75
2023-02-26T18:14:41.079Z,94918.53
2023-02-26T18:17:12.477Z,94916.09
2023-02-26T18:19:39.140Z,94920.94
2023-02-26T18:22:05.748Z,94920.81
2023-02-26T18:24:32.426Z,94918.22
2023-02-26T18:26:59.103Z,94924.13
2023-02-26T18:29:26.445Z,94934.28
2023-02-26T18:31:53.234Z,94925.03
2023-02-26T18:34:19.876Z,94932.47
2023-02-26T18:36:48.306Z,94938.09
2023-02-26T18:39:16.300Z,94943.97
2023-02-26T18:41:42.819Z,94938.13
2023-02-26T18:44:09.750Z,94949.84
2023-02-26T18:46:40.351Z,94955.53
2023-02-26T18:49:17.384Z,94954.84
2023-02-26T18:51:44.237Z,94955.81
2023-02-26T18:54:10.778Z,94965.63
2023-02-26T18:56:38.001Z,94968.78
2023-02-26T18:59:05.905Z,94972.13
2023-02-26T19:01:32.738Z,94969.53
2023-02-26T19:03:59.492Z,94974.53
2023-02-26T19:06:27.879Z,94974.41
2023-02-26T19:08:55.397Z,94982.75
2023-02-26T19:11:22.262Z,94990.91
2023-02-26T19:13:49.881Z,94987.66
2023-02-26T19:16:16.514Z,94989.22
2023-02-26T19:18:43.252Z,94991.88
2023-02-26T19:21:10.884Z,94995.25
2023-02-26T19:23:37.512Z,94999.06
2023-02-26T19:26:05.412Z,95006.50
2023-02-26T19:28:32.465Z,95004.75
2023-02-26T19:30:59.094Z,95004.09
2023-02-26T19:33:26.029Z,94997.41
2023-02-26T19:35:53.278Z,95005.88
2023-02-26T19:38:20.002Z,95003.41
2023-02-26T19:40:46.733Z,95015.00
2023-02-26T19:43:13.400Z,95014.25
2023-02-26T19:45:40.003Z,95014.81
2023-02-26T19:48:06.623Z,95019.59
2023-02-26T19:50:33.161Z,95025.38
2023-02-26T19:53:01.057Z,95019.72
2023-02-26T19:55:27.790Z,95030.59
2023-02-26T19:57:54.416Z,95023.06
2023-02-26T20:00:21.023Z,95026.38
2023-02-26T20:02:47.954Z,95033.69
2023-02-26T20:05:17.177Z,95040.34
2023-02-26T20:07:45.033Z,95041.97
2023-02-26T20:10:12.488Z,95041.88
2023-02-26T20:12:39.208Z,95046.09
2023-02-26T20:15:06.340Z,95041.16
2023-02-26T20:17:34.049Z,95047.63
2023-02-26T20:20:00.891Z,95055.94
2023-02-26T20:22:27.505Z,95055.88
2023-02-26T20:24:54.148Z,95055.00
2023-02-26T20:27:21.208Z,95063.38
2023-02-26T20:29:47.769Z,95066.56
2023-02-26T20:32:14.517Z,95066.56
2023-02-26T20:34:41.213Z,95068.22
2023-02-26T20:37:07.687Z,95069.16
2023-02-26T20:39:34.472Z,95079.97
2023-02-26T20:42:01.519Z,95082.25
2023-02-26T20:44:28.039Z,95069.91
2023-02-26T20:46:54.931Z,95077.28
2023-02-26T20:49:21.830Z,95082.25
2023-02-26T20:51:50.429Z,95087.03
2023-02-26T20:54:19.783Z,95085.44
2023-02-26T20:56:48.747Z,95087.19
2023-02-26T20:59:17.908Z,95087.50
2023-02-26T21:01:45.486Z,95086.69
2023-02-26T21:04:12.584Z,95090.56
2023-02-26T21:06:39.299Z,95087.94
2023-02-26T21:09:06.693Z,95092.00
2023-02-26T21:11:36.616Z,95098.63
2023-02-26T21:14:05.574Z,95096.91
2023-02-26T21:16:32.463Z,95097.78
2023-02-26T21:19:03.941Z,95093.97
2023-02-26T21:21:31.071Z,95098.91
2023-02-26T21:23:58.010Z,95098.22
2023-02-26T21:26:24.599Z,95096.09
2023-02-26T21:28:51.132Z,95098.50
2023-02-26T21:31:20.014Z,95100.19
2023-02-26T21:33:46.641Z,95095.03
2023-02-26T21:36:14.100Z,95109.94
2023-02-26T21:38:41.006Z,95108.94
2023-02-26T21:41:07.861Z,95103.16
2023-02-26T21:43:34.716Z,95102.38
2023-02-26T21:46:01.586Z,95111.59
2023-02-26T21:48:28.119Z,95108.34
2023-02-26T21:50:56.620Z,95108.50
2023-02-26T21:53:23.569Z,95119.16
2023-02-26T21:55:50.213Z,95116.53
2023-02-26T21:58:16.746Z,95109.97
2023-02-26T22:00:43.717Z,95107.47
2023-02-26T22:03:11.323Z,95106.69
2023-02-26T22:05:37.847Z,95119.16
2023-02-26T22:08:04.671Z,95115.06
2023-02-26T22:10:31.337Z,95118.34
2023-02-26T22:12:57.819Z,95123.53
2023-02-26T22:15:24.270Z,95118.50
2023-02-26T22:17:50.700Z,95122.59
2023-02-26T22:20:17.204Z,95129.06
2023-02-26T22:22:44.304Z,95128.34
2023-02-26T22:25:12.443Z,95131.53
2023-02-26T22:27:39.329Z,95132.69
2023-02-26T22:30:08.046Z,95137.47
2023-02-26T22:32:35.152Z,95135.72
2023-02-26T22:35:01.779Z,95139.84
2023-02-26T22:37:28.416Z,95140.72
2023-02-26T22:39:55.002Z,95147.47
2023-02-26T22:42:21.810Z,95145.66
2023-02-26T22:44:48.713Z,95142.50
2023-02-26T22:47:15.310Z,95137.78
2023-02-26T22:49:42.053Z,95136.09
2023-02-26T22:52:10.601Z,95141.03
2023-02-26T22:54:38.840Z,95142.56
2023-02-26T22:57:06.305Z,95140.16
2023-02-26T22:59:33.340Z,95137.69
2023-02-26T23:01:59.810Z,95143.66
2023-02-26T23:04:26.549Z,95147.59
2023-02-26T23:06:53.132Z,95137.75
2023-02-26T23:09:20.154Z,95144.31
2023-02-26T23:11:46.839Z,95150.13
2023-02-26T23:14:13.574Z,95158.25
2023-02-26T23:16:40.413Z,95171.53
2023-02-26T23:19:07.051Z,95176.44
2023-02-26T23:21:33.528Z,95184.50
2023-02-26T23:24:00.105Z,95188.88
2023-02-26T23:26:26.956Z,95184.84
2023-02-26T23:28:53.683Z,95189.06
2023-02-26T23:31:20.279Z,95192.38
2023-02-26T23:33:47.085Z,95188.94
2023-02-26T23:36:13.789Z,95194.06
2023-02-26T23:38:40.463Z,95193.34
2023-02-26T23:41:07.193Z,95181.66
2023-02-26T23:43:33.907Z,95172.38
2023-02-26T23:46:00.468Z,95169.88
2023-02-26T23:48:27.486Z,95180.00
2023-02-26T23:50:54.434Z,95187.31
2023-02-26T23:53:21.117Z,95195.72
2023-02-26T23:55:47.936Z,95195.72
2023-02-26T23:58:14.706Z,95197.25
